Time;durP1;ratioP1;P1;durP2;ratioP2;P2;SDS_P1;SDS_P2;PMS_P1;PMS_P2;Temp;Humidity;BMP_temperature;BMP_pressure;BME280_temperature;BME280_humidity;BME280_pressure;Samples;Min_cycle;Max_cycle;Signal;HPM_P1;HPM_P2
2021/11/21 00:03:44;;;;;;;21.73;10.58;;;;;;;8.70;79.33;100012.20;2780295;85;21068;-71
2021/11/21 00:07:45;;;;;;;18.95;10.03;;;;;;;8.73;79.76;99999.66;2780442;85;21068;-71
2021/11/21 00:11:48;;;;;;;15.30;10.95;;;;;;;8.73;80.49;99999.16;2780472;85;21075;-70
2021/11/21 00:15:50;;;;;;;15.68;10.53;;;;;;;8.81;80.72;99992.78;2780295;85;21087;-71
2021/11/21 00:19:54;;;;;;;15.28;10.30;;;;;;;8.89;80.88;99982.89;2780631;85;21009;-71
2021/11/21 00:23:56;;;;;;;15.03;8.23;;;;;;;8.96;80.97;99973.47;2780612;85;21028;-71
2021/11/21 00:27:58;;;;;;;16.67;8.73;;;;;;;9.01;81.16;99966.47;2780162;85;21066;-71
2021/11/21 00:32:01;;;;;;;12.15;8.75;;;;;;;9.06;80.89;99951.52;2780519;85;21095;-71
2021/11/21 00:36:04;;;;;;;14.93;9.80;;;;;;;9.09;80.96;99956.56;2780080;85;21008;-71
2021/11/21 00:40:08;;;;;;;12.05;8.90;;;;;;;9.11;80.97;99955.45;2780635;85;21042;-71
2021/11/21 00:44:11;;;;;;;9.40;7.80;;;;;;;9.15;81.08;99948.10;2780722;85;21097;-71
2021/11/21 00:48:20;;;;;;;13.75;9.18;;;;;;;9.18;81.16;99946.52;2780657;85;21067;-71
2021/11/21 00:52:18;;;;;;;15.48;11.78;;;;;;;9.21;81.25;99940.95;2779062;85;21619;-70
2021/11/21 00:56:21;;;;;;;19.25;11.78;;;;;;;9.25;81.20;99937.11;2780648;85;21111;-71
2021/11/21 01:00:23;;;;;;;14.05;10.53;;;;;;;9.24;81.61;99926.13;2792373;85;21031;-71
2021/11/21 01:04:25;;;;;;;13.88;10.28;;;;;;;9.26;81.60;99932.16;2762880;86;21661;-71
2021/11/21 01:08:28;;;;;;;13.88;9.88;;;;;;;9.29;81.74;99913.31;2814487;84;21006;-71
2021/11/21 01:12:30;;;;;;;15.32;11.43;;;;;;;9.41;81.60;99905.29;2807231;85;21107;-71
2021/11/21 01:16:32;;;;;;;15.23;9.95;;;;;;;9.47;81.54;99907.92;2807446;84;21023;-71
2021/11/21 01:20:40;;;;;;;15.10;9.83;;;;;;;9.55;81.38;99906.31;2809502;84;21019;-70
2021/11/21 01:24:41;;;;;;;15.72;9.05;;;;;;;9.61;81.17;99902.30;2760760;86;21066;-70
2021/11/21 01:28:43;;;;;;;14.15;9.15;;;;;;;9.70;81.14;99894.05;2806187;84;21078;-71
2021/11/21 01:32:45;;;;;;;13.95;9.58;;;;;;;9.83;80.96;99892.52;2763409;86;21054;-71
2021/11/21 01:36:47;;;;;;;11.65;8.95;;;;;;;9.97;80.90;99886.87;2760821;86;20980;-71
2021/11/21 01:40:50;;;;;;;11.18;9.88;;;;;;;10.10;80.80;99884.00;2806507;84;21030;-71
2021/11/21 01:44:52;;;;;;;14.73;11.30;;;;;;;10.18;80.24;99870.52;2763536;85;21042;-71
2021/11/21 01:48:54;;;;;;;16.40;11.38;;;;;;;10.24;80.15;99872.66;2760807;86;21075;-71
2021/11/21 01:52:56;;;;;;;12.53;10.20;;;;;;;10.25;80.24;99869.03;2805573;84;21114;-71
2021/11/21 01:56:58;;;;;;;14.87;10.60;;;;;;;10.29;80.30;99869.11;2763105;84;21057;-71
2021/11/21 02:01:01;;;;;;;19.52;12.68;;;;;;;10.28;79.91;99862.11;2815096;84;21572;-72
2021/11/21 02:05:04;;;;;;;14.60;11.55;;;;;;;10.29;79.92;99861.95;2807794;85;21062;-72
2021/11/21 02:09:08;;;;;;;14.53;10.58;;;;;;;10.26;80.06;99852.10;2807522;84;21039;-71
2021/11/21 02:13:10;;;;;;;16.73;11.65;;;;;;;10.25;79.98;99845.11;2807341;84;21058;-71
2021/11/21 02:17:13;;;;;;;14.80;11.22;;;;;;;10.28;80.04;99849.64;2807535;85;21039;-71
2021/11/21 02:21:17;;;;;;;14.00;9.68;;;;;;;10.33;80.18;99837.28;2807569;84;21018;-71
2021/11/21 02:25:19;;;;;;;13.45;12.05;;;;;;;10.36;79.83;99832.20;2809506;84;21081;-71
2021/11/21 02:29:21;;;;;;;16.70;12.23;;;;;;;10.42;79.83;99825.03;2760931;85;21054;-71
2021/11/21 02:33:24;;;;;;;16.57;12.20;;;;;;;10.40;79.45;99815.84;2805727;85;21034;-71
2021/11/21 02:37:26;;;;;;;18.27;11.63;;;;;;;10.37;79.47;99809.45;2805866;84;21062;-71
2021/11/21 02:41:28;;;;;;;12.58;10.70;;;;;;;10.37;79.72;99797.98;2806118;84;21551;-71
2021/11/21 02:45:30;;;;;;;15.90;11.55;;;;;;;10.39;79.44;99796.03;2763295;85;21109;-71
2021/11/21 02:49:32;;;;;;;16.87;11.22;;;;;;;10.44;79.30;99791.16;2815089;83;21030;-71
2021/11/21 02:53:37;;;;;;;19.37;13.95;;;;;;;10.38;78.88;99783.20;2809693;84;21070;-72
2021/11/21 02:57:40;;;;;;;14.73;12.25;;;;;;;10.38;79.05;99784.53;2809081;84;21090;-72
2021/11/21 03:01:41;;;;;;;20.82;12.85;;;;;;;10.38;78.78;99789.03;2809091;84;21038;-71
2021/11/21 03:05:43;;;;;;;18.17;12.93;;;;;;;10.43;79.43;99789.01;2809895;84;21007;-71
2021/11/21 03:09:49;;;;;;;21.85;14.80;;;;;;;10.40;79.31;99795.91;2809626;84;21054;-71
2021/11/21 03:13:51;;;;;;;16.30;13.38;;;;;;;10.38;79.21;99775.73;2810055;84;21082;-71
2021/11/21 03:17:55;;;;;;;16.27;12.05;;;;;;;10.39;79.04;99777.41;2809584;84;21047;-71
2021/11/21 03:21:57;;;;;;;12.55;11.18;;;;;;;10.42;79.14;99780.69;2809823;84;21031;-71
2021/11/21 03:25:59;;;;;;;16.75;12.55;;;;;;;10.44;79.31;99779.20;2809624;84;21066;-71
2021/11/21 03:30:05;;;;;;;17.55;13.03;;;;;;;10.49;79.44;99778.80;2809571;84;21133;-71
2021/11/21 03:34:08;;;;;;;18.07;13.05;;;;;;;10.49;79.23;99778.80;2809955;84;21062;-71
2021/11/21 03:38:10;;;;;;;17.02;13.78;;;;;;;10.45;79.08;99778.72;2809685;84;21011;-70
2021/11/21 03:42:12;;;;;;;17.37;13.68;;;;;;;10.38;79.41;99776.56;2809895;84;21234;-70
2021/11/21 03:46:14;;;;;;;16.00;12.85;;;;;;;10.36;79.71;99773.20;2810122;84;20983;-71
2021/11/21 03:50:18;;;;;;;17.52;12.82;;;;;;;10.33;79.76;99768.67;2809397;84;21075;-71
2021/11/21 03:54:20;;;;;;;16.30;13.05;;;;;;;10.34;79.68;99772.50;2809674;84;21031;-71
2021/11/21 03:58:22;;;;;;;13.83;12.35;;;;;;;10.23;79.23;99762.83;2809697;84;21277;-71
2021/11/21 04:02:23;;;;;;;14.78;12.98;;;;;;;10.18;79.32;99766.39;2806067;84;21078;-70
2021/11/21 04:06:26;;;;;;;17.62;13.45;;;;;;;10.17;79.50;99763.86;2806246;85;21043;-72
2021/11/21 04:10:30;;;;;;;16.95;13.35;;;;;;;10.14;79.28;99761.83;2805992;85;21011;-71
2021/11/21 04:14:32;;;;;;;17.20;12.53;;;;;;;10.10;78.94;99752.45;2805988;85;21094;-71
2021/11/21 04:18:35;;;;;;;19.67;12.85;;;;;;;10.00;78.98;99748.91;2805490;85;21039;-71
2021/11/21 04:22:37;;;;;;;15.70;10.78;;;;;;;9.93;79.01;99742.47;2805814;84;21090;-71
2021/11/21 04:26:43;;;;;;;15.50;12.25;;;;;;;9.81;79.29;99729.27;2805854;84;20967;-71
2021/11/21 04:30:45;;;;;;;18.95;13.28;;;;;;;9.70;79.72;99724.91;2805997;84;21038;-71
2021/11/21 04:34:47;;;;;;;15.98;12.47;;;;;;;9.56;80.14;99712.83;2805790;84;21078;-71
2021/11/21 04:38:49;;;;;;;15.72;13.65;;;;;;;9.60;80.23;99723.19;2805804;84;21094;-71
2021/11/21 04:42:51;;;;;;;15.40;12.50;;;;;;;9.62;80.37;99714.59;2805841;85;21070;-71
2021/11/21 04:46:53;;;;;;;16.32;12.93;;;;;;;9.55;80.16;99696.55;2806001;85;20995;-70
2021/11/21 04:50:55;;;;;;;18.25;12.88;;;;;;;9.50;80.42;99692.14;2805824;84;21043;-70
2021/11/21 04:54:57;;;;;;;16.82;13.32;;;;;;;9.39;80.53;99679.80;2806055;84;20996;-71
2021/11/21 04:58:59;;;;;;;23.57;14.87;;;;;;;9.42;80.60;99683.51;2805867;83;21066;-70
2021/11/21 05:03:01;;;;;;;17.80;12.47;;;;;;;9.47;80.51;99669.84;2809528;84;21153;-71
2021/11/21 05:07:03;;;;;;;16.07;12.05;;;;;;;9.44;80.38;99671.44;2786782;84;21446;-71
2021/11/21 05:11:05;;;;;;;18.50;12.93;;;;;;;9.41;80.56;99662.39;2763102;86;21048;-71
2021/11/21 05:15:10;;;;;;;18.70;12.43;;;;;;;9.29;81.20;99657.19;2762984;86;21095;-71
2021/11/21 05:19:12;;;;;;;14.35;10.72;;;;;;;9.18;81.62;99659.92;2762831;86;21111;-71
2021/11/21 05:23:14;;;;;;;14.05;12.23;;;;;;;9.14;81.95;99654.06;2762986;86;20974;-71
2021/11/21 05:27:15;;;;;;;14.63;11.68;;;;;;;9.09;82.23;99652.27;2763382;86;21067;-71
2021/11/21 05:31:18;;;;;;;19.80;12.25;;;;;;;9.09;82.29;99646.13;2763244;86;21052;-71
2021/11/21 05:35:20;;;;;;;16.20;12.43;;;;;;;9.13;82.08;99651.02;2763522;86;21112;-71
2021/11/21 05:39:22;;;;;;;13.38;10.13;;;;;;;9.15;82.17;99654.88;2762942;86;21083;-71
2021/11/21 05:43:23;;;;;;;13.68;12.13;;;;;;;9.13;82.21;99654.18;2762981;86;21092;-70
2021/11/21 05:47:25;;;;;;;20.60;14.10;;;;;;;9.14;82.17;99647.90;2763047;86;21017;-70
2021/11/21 05:51:27;;;;;;;14.05;10.98;;;;;;;9.20;82.23;99648.69;2762804;86;21454;-70
2021/11/21 05:55:29;;;;;;;18.67;13.25;;;;;;;9.19;81.86;99649.66;2763290;86;21095;-71
2021/11/21 05:59:35;;;;;;;16.80;11.70;;;;;;;9.23;81.92;99648.41;2762903;86;21060;-71
2021/11/21 06:03:34;;;;;;;18.73;12.43;;;;;;;9.16;81.85;99651.76;2758989;86;21009;-71
2021/11/21 06:07:36;;;;;;;19.35;14.83;;;;;;;9.11;81.91;99646.84;2759869;86;20989;-71
2021/11/21 06:11:38;;;;;;;17.00;14.03;;;;;;;9.17;81.78;99648.95;2759276;86;21432;-71
2021/11/21 06:15:40;;;;;;;18.57;15.20;;;;;;;9.22;81.50;99652.55;2759409;86;21027;-71
2021/11/21 06:19:44;;;;;;;17.73;12.85;;;;;;;9.20;81.30;99659.30;2759726;86;21039;-71
2021/11/21 06:23:45;;;;;;;19.90;14.90;;;;;;;9.19;81.78;99660.78;2759613;86;21091;-71
2021/11/21 06:27:48;;;;;;;20.27;14.00;;;;;;;9.19;81.87;99662.93;2759091;86;31391;-70
2021/11/21 06:31:52;;;;;;;19.25;15.15;;;;;;;9.16;82.00;99662.38;2759215;86;21004;-71
2021/11/21 06:35:54;;;;;;;17.77;12.37;;;;;;;9.16;82.16;99660.55;2759334;85;21099;-70
2021/11/21 06:39:55;;;;;;;17.02;13.78;;;;;;;9.13;82.07;99655.51;2759283;86;21047;-71
2021/11/21 06:43:57;;;;;;;21.50;14.60;;;;;;;9.15;82.05;99653.55;2759504;85;21007;-71
2021/11/21 06:47:59;;;;;;;17.15;13.95;;;;;;;9.17;82.23;99658.74;2759547;86;21011;-71
2021/11/21 06:52:01;;;;;;;24.35;17.00;;;;;;;9.15;81.96;99649.58;2759264;85;21059;-71
2021/11/21 06:56:04;;;;;;;15.68;13.90;;;;;;;9.16;82.06;99644.63;2759710;85;20972;-71
2021/11/21 07:00:11;;;;;;;16.30;12.73;;;;;;;9.20;82.07;99639.39;2805423;84;21070;-70
2021/11/21 07:04:12;;;;;;;24.45;16.75;;;;;;;9.27;81.46;99637.05;2809549;84;21120;-71
2021/11/21 07:08:16;;;;;;;18.85;14.50;;;;;;;9.24;81.03;99635.53;2809444;84;21086;-71
2021/11/21 07:12:17;;;;;;;17.73;13.15;;;;;;;9.31;80.70;99637.64;2809243;84;21038;-71
2021/11/21 07:16:19;;;;;;;19.70;15.00;;;;;;;9.35;80.73;99629.76;2808504;84;21105;-70
2021/11/21 07:20:21;;;;;;;16.40;14.03;;;;;;;9.41;80.85;99630.53;2809218;84;21030;-71
2021/11/21 07:24:23;;;;;;;22.98;13.70;;;;;;;9.41;80.38;99616.80;2809180;84;21055;-71
2021/11/21 07:28:25;;;;;;;20.00;15.35;;;;;;;9.43;80.09;99624.60;2809438;84;21082;-71
2021/11/21 07:32:27;;;;;;;18.85;13.90;;;;;;;9.47;80.04;99613.23;2809230;84;21027;-71
2021/11/21 07:36:28;;;;;;;16.65;14.05;;;;;;;9.46;80.74;99612.41;2809258;84;21066;-71
2021/11/21 07:40:30;;;;;;;21.68;15.72;;;;;;;9.55;80.62;99612.91;2809611;84;20999;-71
2021/11/21 07:44:32;;;;;;;20.95;14.80;;;;;;;9.57;80.21;99612.80;2772912;84;20998;-71
2021/11/21 07:48:34;;;;;;;19.02;14.55;;;;;;;9.54;79.53;99611.23;2763240;86;21097;-71
2021/11/21 07:52:36;;;;;;;28.17;13.90;;;;;;;9.54;80.00;99608.58;2763194;86;21037;-70
2021/11/21 07:56:38;;;;;;;22.40;15.10;;;;;;;9.58;79.91;99617.12;2763267;86;21134;-70
2021/11/21 08:00:40;;;;;;;24.90;19.00;;;;;;;9.65;79.69;99613.44;2761823;85;21085;-73
2021/11/21 08:04:41;;;;;;;19.32;15.10;;;;;;;9.70;79.83;99617.34;2758719;86;21033;-73
2021/11/21 08:08:43;;;;;;;23.27;16.30;;;;;;;9.75;79.80;99619.59;2759340;85;21142;-73
2021/11/21 08:12:45;;;;;;;24.52;17.75;;;;;;;9.75;79.67;99622.76;2759972;86;20998;-75
2021/11/21 08:16:47;;;;;;;26.80;19.37;;;;;;;9.79;79.32;99626.30;2795142;85;21024;-75
2021/11/21 08:20:49;;;;;;;25.75;18.48;;;;;;;9.85;79.49;99627.11;2806514;85;21035;-73
2021/11/21 08:24:51;;;;;;;19.77;17.12;;;;;;;9.93;79.48;99626.90;2806024;85;21063;-74
2021/11/21 08:28:53;;;;;;;25.12;18.17;;;;;;;9.95;79.08;99632.91;2805840;85;21031;-76
2021/11/21 08:32:54;;;;;;;26.07;17.15;;;;;;;10.01;79.17;99628.36;2805766;85;20999;-74
2021/11/21 08:36:56;;;;;;;30.23;17.80;;;;;;;10.05;78.79;99631.59;2806283;85;20968;-73
2021/11/21 08:40:58;;;;;;;23.05;16.62;;;;;;;10.07;78.54;99627.83;2806613;85;21059;-77
2021/11/21 08:45:00;;;;;;;22.93;16.90;;;;;;;10.13;78.23;99607.33;2806483;85;20999;-76
2021/11/21 08:49:02;;;;;;;25.02;16.87;;;;;;;10.17;78.26;99619.01;2806177;85;21036;-72
2021/11/21 08:53:04;;;;;;;23.60;15.98;;;;;;;10.25;78.46;99613.84;2806052;85;21014;-76
2021/11/21 08:57:06;;;;;;;25.65;17.77;;;;;;;10.21;77.32;99608.44;2805088;85;21027;-75
2021/11/21 09:01:08;;;;;;;22.25;15.78;;;;;;;10.25;78.22;99620.49;2804649;84;21058;-73
2021/11/21 09:05:11;;;;;;;22.77;16.95;;;;;;;10.13;77.71;99613.98;2804759;85;20988;-76
2021/11/21 09:09:13;;;;;;;26.40;18.12;;;;;;;10.12;78.12;99625.59;2804566;84;21011;-76
2021/11/21 09:13:14;;;;;;;23.27;17.87;;;;;;;10.13;78.01;99627.27;2804661;85;21039;-75
2021/11/21 09:17:16;;;;;;;25.45;16.10;;;;;;;10.17;78.17;99626.98;2805082;84;20995;-76
2021/11/21 09:21:18;;;;;;;23.77;16.57;;;;;;;10.15;77.70;99617.33;2804569;85;21078;-75
2021/11/21 09:25:21;;;;;;;20.30;14.45;;;;;;;10.25;78.59;99613.84;2804627;85;20960;-75
2021/11/21 09:29:22;;;;;;;22.80;16.65;;;;;;;10.27;77.15;99599.92;2804767;85;21467;-76
2021/11/21 09:33:25;;;;;;;22.35;17.05;;;;;;;10.31;77.09;99601.31;2804972;85;20988;-76
2021/11/21 09:37:26;;;;;;;20.92;16.30;;;;;;;10.37;77.54;99604.73;2804913;84;21015;-75
2021/11/21 09:41:28;;;;;;;21.40;16.27;;;;;;;10.61;78.20;99597.32;2805188;84;21047;-73
2021/11/21 09:45:30;;;;;;;17.00;13.38;;;;;;;10.81;75.86;99591.48;2805275;85;21007;-73
2021/11/21 09:49:32;;;;;;;19.67;14.98;;;;;;;10.79;74.39;99586.77;2805098;85;21067;-76
2021/11/21 09:53:35;;;;;;;18.60;12.58;;;;;;;10.70;74.69;99585.80;2805205;84;21054;-74
2021/11/21 09:57:37;;;;;;;20.62;15.53;;;;;;;10.55;75.24;99586.76;2805200;85;21086;-74
2021/11/21 10:01:41;;;;;;;22.42;15.32;;;;;;;10.43;75.60;99585.60;2804955;84;21095;-76
2021/11/21 10:05:55;;;;;;;23.55;16.65;;;;;;;10.41;75.52;99582.22;2804932;84;21011;-76
2021/11/21 10:10:00;;;;;;;20.82;15.88;;;;;;;10.45;76.19;99577.98;2805096;85;21070;-75
2021/11/21 10:14:05;;;;;;;20.92;14.95;;;;;;;10.53;76.76;99572.77;2805848;84;21102;-73
2021/11/21 10:18:07;;;;;;;24.47;15.93;;;;;;;10.56;76.34;99573.33;2805860;85;21027;-74
2021/11/21 10:22:09;;;;;;;25.72;18.40;;;;;;;10.62;76.29;99581.23;2804946;85;21720;-74
2021/11/21 10:26:29;;;;;;;19.70;15.05;;;;;;;10.69;76.34;99573.49;2804664;84;20980;-73
2021/11/21 10:30:31;;;;;;;19.82;15.63;;;;;;;10.62;75.43;99559.11;2805202;85;21039;-72
2021/11/21 10:34:33;;;;;;;21.93;15.78;;;;;;;10.55;75.55;99569.47;2805376;85;21039;-74
2021/11/21 10:38:51;;;;;;;23.12;14.65;;;;;;;10.51;75.85;99558.27;2805519;85;20999;-72
2021/11/21 10:42:53;;;;;;;24.43;17.05;;;;;;;10.49;75.86;99571.38;2806071;84;21058;-73
2021/11/21 10:46:58;;;;;;;19.70;14.80;;;;;;;10.56;76.30;99571.14;2806055;85;21039;-72
2021/11/21 10:51:01;;;;;;;21.65;16.67;;;;;;;10.42;75.73;99566.65;2805886;84;21098;-73
2021/11/21 10:55:08;;;;;;;24.23;18.35;;;;;;;10.32;76.31;99568.44;2805959;85;21000;-73
2021/11/21 10:59:10;;;;;;;24.10;17.37;;;;;;;10.34;76.36;99565.14;2805192;84;21047;-73
2021/11/21 11:03:19;;;;;;;20.60;17.10;;;;;;;10.37;75.81;99558.71;2808399;84;20992;-72
2021/11/21 11:07:20;;;;;;;25.30;16.50;;;;;;;10.33;76.37;99549.35;2809929;84;21007;-72
2021/11/21 11:11:22;;;;;;;22.75;18.50;;;;;;;10.33;75.92;99551.50;2809045;84;21042;-71
2021/11/21 11:15:25;;;;;;;22.87;15.80;;;;;;;10.37;76.46;99540.92;2808752;84;21014;-74
2021/11/21 11:19:29;;;;;;;21.48;15.15;;;;;;;10.43;75.71;99546.20;2808854;84;21027;-73
2021/11/21 11:23:31;;;;;;;22.42;16.90;;;;;;;10.50;75.97;99545.14;2808676;84;21086;-74
2021/11/21 11:27:58;;;;;;;26.17;16.55;;;;;;;10.45;75.36;99536.77;2808133;84;21030;-70
2021/11/21 11:32:28;;;;;;;31.97;16.87;;;;;;;10.43;75.88;99536.42;2807985;84;21071;-71
2021/11/21 11:36:33;;;;;;;18.77;14.07;;;;;;;10.44;76.91;99537.23;2808083;84;21026;-73
2021/11/21 11:40:50;;;;;;;25.32;18.32;;;;;;;10.51;75.94;99525.54;2808617;84;20999;-72
2021/11/21 11:44:55;;;;;;;20.27;15.05;;;;;;;10.59;75.93;99530.97;2808261;84;21074;-72
2021/11/21 11:49:04;;;;;;;21.00;15.03;;;;;;;10.64;75.03;99530.54;2809117;84;21027;-72
2021/11/21 11:53:08;;;;;;;22.42;16.87;;;;;;;10.64;75.38;99531.39;2808009;84;21051;-70
2021/11/21 11:57:10;;;;;;;20.90;14.07;;;;;;;10.69;75.14;99531.78;2809167;84;21039;-75
2021/11/21 12:01:13;;;;;;;19.40;13.18;;;;;;;10.71;74.24;99538.30;2782793;84;21201;-72
2021/11/21 12:05:37;;;;;;;17.50;13.58;;;;;;;10.73;73.97;99531.49;2736975;86;21066;-73
2021/11/21 12:09:38;;;;;;;21.90;15.35;;;;;;;10.65;74.18;99522.91;2763784;86;21026;-73
2021/11/21 12:13:40;;;;;;;19.05;13.50;;;;;;;10.73;74.39;99531.02;2764159;86;21066;-74
2021/11/21 12:17:54;;;;;;;23.42;16.37;;;;;;;10.70;74.52;99529.95;2764278;86;20991;-73
2021/11/21 12:21:58;;;;;;;25.08;17.42;;;;;;;10.74;75.14;99530.03;2763986;86;21071;-73
2021/11/21 12:26:38;;;;;;;25.75;16.02;;;;;;;10.75;75.03;99527.72;2781180;84;21019;-73
2021/11/21 12:30:40;;;;;;;18.67;13.53;;;;;;;10.77;74.98;99527.55;2789946;84;21027;-74
2021/11/21 12:34:43;;;;;;;15.72;12.65;;;;;;;10.70;74.77;99525.96;2773996;84;21018;-73
2021/11/21 12:38:45;;;;;;;21.80;14.70;;;;;;;10.70;74.27;99528.14;2785326;84;21019;-73
2021/11/21 12:42:55;;;;;;;20.50;15.48;;;;;;;10.73;74.99;99532.34;2772141;84;21003;-73
2021/11/21 12:47:02;;;;;;;25.08;16.52;;;;;;;10.70;75.36;99521.97;2787225;84;21047;-73
2021/11/21 12:51:05;;;;;;;21.75;15.72;;;;;;;10.70;75.65;99525.48;2787828;84;21090;-73
2021/11/21 12:55:13;;;;;;;20.72;15.03;;;;;;;10.68;74.91;99519.95;2803342;84;21089;-73
2021/11/21 12:59:14;;;;;;;19.20;15.43;;;;;;;10.68;74.85;99526.59;2782967;84;21027;-73
2021/11/21 13:03:23;;;;;;;20.62;15.32;;;;;;;10.64;74.99;99523.41;2808166;84;21051;-72
2021/11/21 13:07:34;;;;;;;22.87;17.23;;;;;;;10.61;74.91;99521.53;2806702;84;21753;-73
2021/11/21 13:11:36;;;;;;;22.27;17.32;;;;;;;10.56;75.56;99518.81;2806474;84;20996;-74
2021/11/21 13:15:38;;;;;;;18.42;14.45;;;;;;;10.47;75.81;99515.67;2806067;85;21035;-74
2021/11/21 13:19:40;;;;;;;18.40;13.55;;;;;;;10.42;76.15;99516.13;2806132;85;21011;-72
2021/11/21 13:23:42;;;;;;;24.50;14.28;;;;;;;10.47;75.85;99515.67;2806590;85;21046;-73
2021/11/21 13:27:44;;;;;;;23.57;15.70;;;;;;;10.46;75.30;99514.51;2767743;85;21054;-72
2021/11/21 13:31:46;;;;;;;21.40;14.95;;;;;;;10.52;75.37;99528.07;2789430;85;21406;-71
2021/11/21 13:35:57;;;;;;;24.65;17.30;;;;;;;10.49;75.45;99520.36;2785421;85;21029;-74
2021/11/21 13:39:59;;;;;;;21.52;15.30;;;;;;;10.43;76.26;99521.80;2773208;85;21003;-73
2021/11/21 13:44:06;;;;;;;21.07;14.58;;;;;;;10.43;76.59;99529.77;2760383;86;20991;-73
2021/11/21 13:48:32;;;;;;;21.33;14.13;;;;;;;10.40;76.42;99530.51;2777073;85;21042;-72
2021/11/21 13:52:34;;;;;;;19.23;15.23;;;;;;;10.36;76.43;99530.45;2805500;85;21086;-73
2021/11/21 13:56:44;;;;;;;25.82;18.15;;;;;;;10.36;76.84;99528.61;2805286;85;21136;-73
2021/11/21 14:00:46;;;;;;;23.70;17.65;;;;;;;10.32;76.79;99535.20;2759739;85;21047;-73
2021/11/21 14:04:51;;;;;;;26.40;17.62;;;;;;;10.30;76.84;99527.87;2739477;85;21075;-73
2021/11/21 14:08:54;;;;;;;22.33;17.40;;;;;;;10.35;77.05;99534.09;2768023;85;21055;-74
2021/11/21 14:13:20;;;;;;;25.62;17.67;;;;;;;10.27;77.27;99536.13;2734649;87;21054;-75
2021/11/21 14:17:28;;;;;;;26.60;18.15;;;;;;;10.27;77.87;99535.63;2734648;87;21034;-73
2021/11/21 14:21:30;;;;;;;27.13;17.70;;;;;;;10.32;77.72;99539.67;2734688;85;21063;-74
2021/11/21 14:25:38;;;;;;;23.92;18.80;;;;;;;10.26;77.92;99536.61;2755269;85;20995;-73
2021/11/21 14:29:43;;;;;;;25.55;17.87;;;;;;;10.20;78.14;99542.50;2780022;85;21051;-73
2021/11/21 14:33:48;;;;;;;30.77;19.92;;;;;;;10.25;78.57;99537.59;2779949;85;21263;-71
2021/11/21 14:37:50;;;;;;;25.17;17.48;;;;;;;10.17;78.48;99535.29;2779542;85;21007;-73
2021/11/21 14:42:01;;;;;;;26.40;17.27;;;;;;;10.19;78.48;99538.17;2779244;85;21003;-73
2021/11/21 14:46:03;;;;;;;31.02;19.05;;;;;;;10.16;78.59;99542.44;2779373;85;21046;-73
2021/11/21 14:50:07;;;;;;;28.10;20.23;;;;;;;10.03;78.67;99544.06;2779196;85;21055;-73
2021/11/21 14:54:16;;;;;;;24.77;17.52;;;;;;;9.95;79.51;99549.22;2776429;85;21023;-74
2021/11/21 14:58:19;;;;;;;28.40;19.80;;;;;;;9.99;79.54;99547.95;2732117;86;21336;-73
2021/11/21 15:02:17;;;;;;;26.95;16.55;;;;;;;9.95;79.61;99546.56;2769398;85;21122;-75
2021/11/21 15:06:19;;;;;;;27.10;19.75;;;;;;;9.98;79.74;99551.59;2767792;85;21119;-74
2021/11/21 15:10:21;;;;;;;30.95;19.10;;;;;;;9.98;79.43;99552.92;2767768;85;21035;-73
2021/11/21 15:14:23;;;;;;;30.08;18.12;;;;;;;10.02;79.53;99557.48;2767625;85;21062;-72
2021/11/21 15:18:25;;;;;;;26.30;19.05;;;;;;;10.01;79.39;99552.64;2767991;85;21111;-73
2021/11/21 15:22:27;;;;;;;26.95;20.17;;;;;;;10.02;79.48;99555.64;2767717;86;21301;-73
2021/11/21 15:26:29;;;;;;;25.68;20.17;;;;;;;9.98;80.07;99560.89;2765663;86;21031;-73
2021/11/21 15:30:31;;;;;;;29.52;19.42;;;;;;;9.88;80.37;99570.19;2738691;85;21038;-72
2021/11/21 15:34:35;;;;;;;32.65;20.00;;;;;;;9.77;81.15;99583.11;2757786;85;21114;-75
2021/11/21 15:38:38;;;;;;;32.95;21.35;;;;;;;9.73;81.80;99587.03;2747348;86;21086;-72
2021/11/21 15:42:41;;;;;;;26.95;19.70;;;;;;;9.69;82.03;99591.77;2718553;87;20992;-72
2021/11/21 15:46:42;;;;;;;28.32;21.25;;;;;;;9.70;82.13;99594.77;2710433;87;21129;-73
2021/11/21 15:50:47;;;;;;;29.72;20.50;;;;;;;9.80;81.97;99586.81;2761758;86;21055;-73
2021/11/21 15:54:49;;;;;;;28.55;20.90;;;;;;;9.85;81.51;99594.38;2761777;85;21050;-73
2021/11/21 15:58:50;;;;;;;30.77;21.68;;;;;;;9.91;81.30;99590.34;2761842;85;21000;-72
2021/11/21 16:02:52;;;;;;;32.67;22.40;;;;;;;9.95;81.13;99589.08;2762032;85;21090;-73
2021/11/21 16:06:53;;;;;;;34.00;23.52;;;;;;;10.02;81.12;99589.36;2762418;85;21027;-72
2021/11/21 16:10:56;;;;;;;37.70;21.93;;;;;;;10.06;81.19;99591.61;2762052;86;21114;-72
2021/11/21 16:14:57;;;;;;;27.15;20.00;;;;;;;10.06;80.98;99600.91;2761997;85;21035;-73
2021/11/21 16:18:59;;;;;;;31.48;22.50;;;;;;;10.01;81.17;99601.79;2762247;85;21015;-73
2021/11/21 16:23:01;;;;;;;37.45;24.18;;;;;;;10.05;81.25;99602.36;2762030;85;21015;-72
2021/11/21 16:27:04;;;;;;;29.82;22.05;;;;;;;9.88;82.00;99608.70;2762067;86;20988;-72
2021/11/21 16:31:06;;;;;;;31.77;22.52;;;;;;;9.81;82.29;99605.76;2761958;85;21110;-72
2021/11/21 16:35:10;;;;;;;36.08;21.82;;;;;;;9.82;82.37;99605.28;2762293;85;21094;-72
2021/11/21 16:39:12;;;;;;;28.40;23.10;;;;;;;9.79;82.43;99610.37;2762202;85;21059;-72
2021/11/21 16:43:14;;;;;;;34.75;19.55;;;;;;;9.88;82.29;99603.90;2762317;86;21062;-72
2021/11/21 16:47:15;;;;;;;28.23;19.82;;;;;;;9.85;82.41;99609.84;2762098;86;21070;-72
2021/11/21 16:51:17;;;;;;;57.58;21.62;;;;;;;9.83;82.37;99610.47;2762136;85;21028;-72
2021/11/21 16:55:20;;;;;;;27.15;21.10;;;;;;;9.86;82.41;99619.48;2762127;86;21062;-72
2021/11/21 16:59:22;;;;;;;24.63;19.48;;;;;;;9.84;82.70;99621.45;2762203;86;21054;-73
2021/11/21 17:03:25;;;;;;;28.85;20.60;;;;;;;9.71;82.95;99623.00;2761678;85;21043;-73
2021/11/21 17:07:26;;;;;;;32.13;21.15;;;;;;;9.78;83.31;99634.43;2789485;85;21039;-73
2021/11/21 17:11:30;;;;;;;31.70;22.35;;;;;;;9.74;83.22;99632.53;2808407;85;21063;-73
2021/11/21 17:15:33;;;;;;;33.95;21.27;;;;;;;9.80;83.34;99643.09;2808602;85;21494;-73
2021/11/21 17:19:35;;;;;;;24.32;19.35;;;;;;;9.83;83.11;99641.49;2808526;85;20998;-73
2021/11/21 17:23:36;;;;;;;28.15;21.48;;;;;;;9.90;82.90;99645.77;2808394;85;21520;-73
2021/11/21 17:27:40;;;;;;;33.55;22.93;;;;;;;9.90;82.98;99643.94;2804794;84;21074;-71
2021/11/21 17:31:42;;;;;;;31.00;22.00;;;;;;;9.91;82.88;99656.75;2774553;85;21079;-69
2021/11/21 17:35:44;;;;;;;33.13;23.02;;;;;;;9.86;82.94;99665.13;2807707;85;21019;-70
2021/11/21 17:39:47;;;;;;;32.98;22.32;;;;;;;9.82;83.16;99663.22;2807717;85;21035;-70
2021/11/21 17:43:48;;;;;;;31.52;20.82;;;;;;;9.82;83.22;99673.02;2807755;85;21055;-70
2021/11/21 17:47:50;;;;;;;27.73;19.75;;;;;;;9.84;83.17;99677.70;2807991;84;21055;-70
2021/11/21 17:51:52;;;;;;;32.67;23.45;;;;;;;9.82;83.20;99676.50;2807722;85;21500;-70
2021/11/21 17:56:01;;;;;;;32.75;21.62;;;;;;;9.88;83.21;99676.95;2807715;84;21020;-70
2021/11/21 18:00:04;;;;;;;29.30;19.55;;;;;;;9.90;83.19;99681.13;2794264;85;21046;-70
2021/11/21 18:04:06;;;;;;;32.00;21.95;;;;;;;9.95;83.07;99688.70;2773655;85;21047;-70
2021/11/21 18:08:08;;;;;;;32.98;20.75;;;;;;;9.95;83.00;99692.69;2790950;84;21066;-70
2021/11/21 18:12:09;;;;;;;30.97;22.02;;;;;;;9.94;82.99;99687.87;2791069;85;20980;-70
2021/11/21 18:16:13;;;;;;;31.27;19.90;;;;;;;9.96;82.99;99689.91;2790813;85;21086;-70
2021/11/21 18:20:15;;;;;;;26.40;19.65;;;;;;;9.94;83.08;99690.53;2790598;84;21047;-70
2021/11/21 18:24:18;;;;;;;35.17;20.05;;;;;;;9.94;83.17;99695.00;2790749;85;21027;-70
2021/11/21 18:28:20;;;;;;;24.92;20.35;;;;;;;9.95;83.26;99700.19;2791053;84;21058;-70
2021/11/21 18:32:23;;;;;;;33.83;20.95;;;;;;;9.97;83.25;99698.23;2790772;85;21027;-70
2021/11/21 18:36:27;;;;;;;33.60;20.45;;;;;;;9.98;83.22;99709.20;2791066;84;21058;-69
2021/11/21 18:40:28;;;;;;;31.25;23.45;;;;;;;10.01;83.17;99712.06;2790808;85;21420;-69
2021/11/21 18:44:30;;;;;;;30.30;20.88;;;;;;;10.02;83.26;99711.08;2790911;85;21075;-70
2021/11/21 18:48:32;;;;;;;33.98;22.15;;;;;;;10.00;83.26;99713.03;2790817;85;21039;-70